Time;durP1;ratioP1;P1;durP2;ratioP2;P2;SDS_P1;SDS_P2;PMS_P1;PMS_P2;Temp;Humidity;BMP_temperature;BMP_pressure;BME280_temperature;BME280_humidity;BME280_pressure;Samples;Min_cycle;Max_cycle;Signal;HPM_P1;HPM_P2
2023/09/29 00:02:07;;;;;;;3.90;3.27;;;15.20;99.90;;;16.18;100.00;98356.84;5018469;28;20549;-79
2023/09/29 00:04:37;;;;;;;10.30;3.80;;;15.20;99.90;;;16.21;100.00;98356.41;5018238;28;21318;-79
2023/09/29 00:07:08;;;;;;;6.27;3.77;;;15.20;99.90;;;16.25;100.00;98357.59;5017679;28;20486;-79
2023/09/29 00:09:38;;;;;;;10.53;3.73;;;15.30;99.90;;;16.17;100.00;98355.25;5015511;28;20467;-79
2023/09/29 00:12:09;;;;;;;5.23;3.20;;;15.30;99.90;;;16.16;100.00;98352.81;5013454;28;20561;-79
2023/09/29 00:14:40;;;;;;;9.40;4.10;;;15.30;99.90;;;16.13;100.00;98348.78;5015005;28;20458;-79
2023/09/29 00:17:10;;;;;;;8.37;3.40;;;15.30;99.90;;;16.13;100.00;98359.31;5015023;28;20493;-79
2023/09/29 00:19:40;;;;;;;6.00;3.60;;;15.20;99.90;;;16.15;100.00;98357.28;5016775;28;20547;-79
2023/09/29 00:22:11;;;;;;;5.87;4.07;;;15.10;99.90;;;16.14;100.00;98360.91;5016269;28;21007;-79
2023/09/29 00:24:41;;;;;;;7.93;4.13;;;15.20;99.90;;;16.10;100.00;98354.47;5021734;28;20482;-79
2023/09/29 00:27:10;;;;;;;10.97;3.53;;;15.20;99.90;;;16.14;100.00;98360.13;5021054;28;20461;-79
2023/09/29 00:29:43;;;;;;;7.60;3.43;;;15.20;99.90;;;16.13;100.00;98359.31;5022828;28;20460;-78
2023/09/29 00:32:12;;;;;;;11.67;4.57;;;15.20;99.90;;;16.12;100.00;98368.25;5021539;28;20489;-79
2023/09/29 00:34:42;;;;;;;14.43;3.83;;;15.20;99.90;;;16.13;100.00;98361.97;5022178;28;20459;-79
2023/09/29 00:37:11;;;;;;;6.47;3.37;;;15.20;99.90;;;16.10;100.00;98357.91;5023938;28;20527;-78
2023/09/29 00:39:41;;;;;;;5.63;3.70;;;15.20;99.90;;;16.13;100.00;98361.16;5021020;28;20466;-79
2023/09/29 00:42:12;;;;;;;5.17;3.40;;;15.20;99.90;;;16.08;100.00;98357.31;5020758;28;20471;-78
2023/09/29 00:44:42;;;;;;;4.57;3.60;;;15.20;99.90;;;16.05;100.00;98347.19;5022954;28;20525;-78
2023/09/29 00:47:12;;;;;;;4.87;3.83;;;15.20;99.90;;;16.06;100.00;98343.53;5019284;28;20459;-79
2023/09/29 00:49:43;;;;;;;6.20;3.63;;;15.20;99.90;;;16.05;100.00;98336.66;5020808;28;20486;-78
2023/09/29 00:52:16;;;;;;;9.73;3.60;;;15.20;99.90;;;16.08;100.00;98341.50;5019868;28;20501;-78
2023/09/29 00:54:47;;;;;;;5.90;3.83;;;15.20;99.90;;;16.05;100.00;98343.75;5020515;28;20459;-79
2023/09/29 00:57:18;;;;;;;7.10;3.63;;;15.20;99.90;;;16.06;100.00;98333.00;5018385;28;20466;-78
2023/09/29 00:59:51;;;;;;;5.63;4.57;;;15.20;99.90;;;16.09;100.00;98327.28;5017099;28;20481;-78
2023/09/29 01:02:23;;;;;;;5.13;3.90;;;15.20;99.90;;;16.14;100.00;98323.97;5019913;28;21297;-78
2023/09/29 01:04:55;;;;;;;6.93;3.23;;;15.20;99.90;;;16.15;100.00;98325.59;5017808;28;21021;-78
2023/09/29 01:07:25;;;;;;;4.80;3.70;;;15.20;99.90;;;16.10;100.00;98326.25;5019388;28;20825;-78
2023/09/29 01:09:54;;;;;;;8.23;4.07;;;15.00;99.90;;;16.05;100.00;98318.19;5017873;28;20471;-78
2023/09/29 01:12:28;;;;;;;5.67;4.00;;;15.10;99.90;;;16.06;100.00;98319.81;5015121;28;20552;-79
2023/09/29 01:14:58;;;;;;;13.20;3.87;;;15.20;99.90;;;16.10;100.00;98320.19;5019336;28;20504;-79
2023/09/29 01:17:29;;;;;;;4.80;3.70;;;15.10;99.90;;;16.10;100.00;98307.00;5018130;28;20461;-78
2023/09/29 01:19:58;;;;;;;6.47;4.07;;;15.10;99.90;;;16.08;100.00;98304.56;5020190;28;20505;-78
2023/09/29 01:22:30;;;;;;;5.87;3.20;;;15.00;99.90;;;16.06;100.00;98300.53;5020612;28;20468;-79
2023/09/29 01:25:03;;;;;;;4.93;3.50;;;15.10;99.90;;;16.07;100.00;98313.47;5020350;28;20965;-79
2023/09/29 01:27:35;;;;;;;7.73;3.63;;;15.10;99.90;;;16.09;100.00;98310.63;5019759;28;20857;-79
2023/09/29 01:30:06;;;;;;;7.13;3.70;;;15.20;99.90;;;16.10;100.00;98307.00;5022501;28;20457;-79
2023/09/29 01:32:36;;;;;;;5.40;3.10;;;15.20;99.90;;;16.07;100.00;98296.84;5021837;28;20475;-79
2023/09/29 01:35:10;;;;;;;4.80;3.60;;;15.20;99.90;;;16.10;100.00;98307.00;5020275;28;20465;-79
2023/09/29 01:37:40;;;;;;;4.47;3.80;;;15.20;99.90;;;16.10;100.00;98307.00;5020539;28;20462;-79
2023/09/29 01:40:13;;;;;;;6.97;4.30;;;15.20;99.90;;;16.13;100.00;98311.03;5018816;28;20484;-79
2023/09/29 01:42:46;;;;;;;4.70;3.83;;;15.20;99.90;;;16.13;100.00;98306.56;5018969;28;20473;-79
2023/09/29 01:45:15;;;;;;;5.77;3.37;;;15.20;99.90;;;16.15;100.00;98307.13;5020269;28;20795;-78
2023/09/29 01:47:47;;;;;;;11.10;3.40;;;15.20;99.90;;;16.12;100.00;98310.22;5018187;28;20507;-79
2023/09/29 01:50:18;;;;;;;8.40;3.80;;;15.20;99.90;;;16.18;100.00;98308.53;5019477;28;20481;-78
2023/09/29 01:52:49;;;;;;;10.83;4.10;;;15.20;99.90;;;16.15;100.00;98322.16;5019421;28;20494;-79
2023/09/29 01:55:24;;;;;;;8.33;3.60;;;15.20;99.90;;;16.13;100.00;98316.28;5019705;28;20461;-79
2023/09/29 01:57:54;;;;;;;11.43;4.60;;;15.20;99.90;;;16.15;100.00;98325.59;5014827;28;20498;-78
2023/09/29 02:00:25;;;;;;;4.33;3.63;;;15.20;99.90;;;16.17;100.00;98314.84;5015983;28;20463;-79
2023/09/29 02:02:56;;;;;;;9.10;3.43;;;15.30;99.90;;;16.19;100.00;98320.69;5016660;28;20469;-79
2023/09/29 02:05:25;;;;;;;5.60;3.90;;;15.30;99.90;;;16.17;100.00;98318.28;5018326;28;20462;-79
2023/09/29 02:07:59;;;;;;;5.50;3.07;;;15.30;99.90;;;16.17;100.00;98317.47;5016961;28;20462;-78
2023/09/29 02:10:30;;;;;;;7.17;3.67;;;15.30;99.90;;;16.17;100.00;98306.94;5018357;28;21088;-79
2023/09/29 02:13:04;;;;;;;4.57;3.40;;;15.30;99.90;;;16.18;100.00;98309.34;5019887;28;20484;-79
2023/09/29 02:15:34;;;;;;;4.90;3.30;;;15.30;99.90;;;16.19;100.00;98304.88;5016313;28;20474;-79
2023/09/29 02:18:04;;;;;;;5.70;3.57;;;15.30;99.90;;;16.19;100.00;98295.13;5017364;28;20522;-79
2023/09/29 02:20:36;;;;;;;7.10;3.80;;;15.30;99.90;;;16.22;100.00;98297.34;5018578;28;20972;-78
2023/09/29 02:23:07;;;;;;;6.73;3.80;;;15.30;99.90;;;16.19;100.00;98295.13;5020238;28;20570;-79
2023/09/29 02:25:38;;;;;;;5.87;4.00;;;15.30;99.90;;;16.16;100.00;98292.94;5018924;28;20489;-79
2023/09/29 02:28:09;;;;;;;8.10;3.70;;;15.30;99.90;;;16.07;100.00;98287.09;5018847;28;20465;-79
2023/09/29 02:30:39;;;;;;;8.60;3.70;;;15.30;99.90;;;16.07;100.00;98286.28;5018934;28;20830;-79
2023/09/29 02:33:09;;;;;;;4.17;3.60;;;15.20;99.90;;;16.08;100.00;98280.81;5020025;28;20486;-79
2023/09/29 02:35:40;;;;;;;5.43;3.50;;;15.30;99.90;;;16.13;100.00;98289.91;5017971;28;20467;-79
2023/09/29 02:38:10;;;;;;;6.63;3.83;;;15.30;99.90;;;16.11;100.00;98287.47;5019672;28;20463;-79
2023/09/29 02:40:41;;;;;;;6.97;4.07;;;15.20;99.90;;;16.12;100.00;98283.81;5018952;28;20458;-78
2023/09/29 02:43:11;;;;;;;12.80;3.80;;;15.30;99.90;;;16.15;100.00;98288.66;5018495;28;20466;-78
2023/09/29 02:45:41;;;;;;;7.43;3.57;;;15.20;99.90;;;16.13;100.00;98285.44;5018516;28;21181;-79
2023/09/29 02:48:11;;;;;;;6.30;3.67;;;15.30;99.90;;;16.13;100.00;98280.16;5018089;28;20467;-78
2023/09/29 02:50:41;;;;;;;6.67;3.80;;;15.30;99.90;;;16.16;100.00;98284.19;5017997;28;20532;-79
2023/09/29 02:53:10;;;;;;;7.10;3.83;;;15.20;99.90;;;16.15;100.00;98293.94;5020162;28;20494;-79
2023/09/29 02:55:40;;;;;;;5.80;3.60;;;15.20;99.90;;;16.11;100.00;98283.00;5017460;28;20454;-79
2023/09/29 02:58:12;;;;;;;7.37;4.03;;;15.20;99.90;;;16.10;100.00;98289.31;5015703;28;20525;-79
2023/09/29 03:00:42;;;;;;;6.43;3.97;;;15.20;99.90;;;16.08;100.00;98287.91;5016485;28;20462;-79
2023/09/29 03:03:13;;;;;;;3.93;3.30;;;15.20;99.90;;;16.06;100.00;98292.59;5016176;28;20950;-79
2023/09/29 03:05:44;;;;;;;5.77;3.77;;;15.10;99.90;;;16.05;100.00;98290.97;5016356;28;20481;-79
2023/09/29 03:08:14;;;;;;;5.47;3.67;;;15.10;99.90;;;16.06;100.00;98284.69;5015428;28;20469;-78
2023/09/29 03:10:46;;;;;;;8.97;3.63;;;15.10;99.90;;;16.00;100.00;98285.56;5015090;28;20505;-79
2023/09/29 03:13:16;;;;;;;4.70;3.50;;;15.10;99.90;;;15.96;100.00;98289.66;5015735;28;20473;-79
2023/09/29 03:15:48;;;;;;;6.30;3.83;;;15.10;99.90;;;15.93;100.00;98298.00;5017831;28;20470;-79
2023/09/29 03:18:18;;;;;;;4.47;3.90;;;15.10;99.90;;;15.93;100.00;98279.53;5017791;28;21180;-79
2023/09/29 03:20:52;;;;;;;5.53;2.90;;;15.10;99.90;;;15.97;100.00;98278.06;5018349;28;20467;-79
2023/09/29 03:23:22;;;;;;;7.00;3.63;;;15.00;99.90;;;15.97;100.00;98280.69;5018884;28;20489;-79
2023/09/29 03:25:54;;;;;;;8.63;3.50;;;15.00;99.90;;;15.93;100.00;98282.94;5017521;28;20460;-79
2023/09/29 03:28:25;;;;;;;10.87;3.53;;;15.00;99.90;;;15.91;100.00;98292.09;5017973;28;20937;-79
2023/09/29 03:30:55;;;;;;;10.20;4.57;;;15.00;99.90;;;15.89;100.00;98286.25;5019041;28;20462;-79
2023/09/29 03:33:24;;;;;;;5.27;3.10;;;15.00;99.90;;;15.90;100.00;98291.28;5018365;28;21210;-79
2023/09/29 03:35:56;;;;;;;3.03;2.73;;;15.00;99.90;;;15.91;100.00;98287.66;5018337;28;20466;-79
2023/09/29 03:38:27;;;;;;;3.60;3.10;;;14.90;99.90;;;15.90;100.00;98290.47;5017455;28;20492;-79
2023/09/29 03:40:58;;;;;;;4.93;3.53;;;14.90;99.90;;;15.91;100.00;98289.47;5019584;28;20823;-79
2023/09/29 03:43:28;;;;;;;8.93;3.40;;;14.90;99.90;;;15.85;100.00;98290.34;5017336;28;20462;-79
2023/09/29 03:45:57;;;;;;;4.43;3.47;;;14.70;99.90;;;15.84;100.00;98286.06;5017838;28;20470;-79
2023/09/29 03:48:28;;;;;;;5.60;3.93;;;14.80;99.90;;;15.83;100.00;98300.28;5017902;28;20470;-79
2023/09/29 03:51:02;;;;;;;4.23;3.27;;;14.70;99.90;;;15.81;100.00;98297.06;5020397;28;20580;-79
2023/09/29 03:53:33;;;;;;;4.77;2.93;;;14.80;99.90;;;15.81;100.00;98302.31;5016644;28;20465;-79
2023/09/29 03:56:04;;;;;;;12.30;4.10;;;14.80;99.90;;;15.77;100.00;98290.59;5015403;28;20465;-79
2023/09/29 03:58:35;;;;;;;5.40;3.60;;;14.80;99.90;;;15.79;100.00;98293.84;5019199;28;20451;-79
2023/09/29 04:01:05;;;;;;;12.53;3.70;;;14.80;99.90;;;15.80;100.00;98300.69;5020357;28;20470;-79
2023/09/29 04:03:35;;;;;;;5.67;3.80;;;14.70;99.90;;;15.80;100.00;98300.69;5018874;28;20481;-79
2023/09/29 04:06:04;;;;;;;5.90;3.40;;;14.70;99.90;;;15.79;100.00;98293.84;5018987;28;20466;-79
2023/09/29 04:08:35;;;;;;;6.57;3.10;;;14.80;99.90;;;15.75;100.00;98293.47;5018696;28;20825;-79
2023/09/29 04:11:07;;;;;;;4.20;3.10;;;14.80;99.90;;;15.76;100.00;98291.63;5020834;28;20474;-79
2023/09/29 04:13:38;;;;;;;4.93;3.30;;;14.70;99.90;;;15.77;100.00;98280.03;5020570;28;20546;-79
2023/09/29 04:16:09;;;;;;;4.80;3.47;;;14.70;99.90;;;15.76;100.00;98289.00;5020981;28;20459;-79
2023/09/29 04:18:39;;;;;;;8.00;3.63;;;14.60;99.90;;;15.74;100.00;98280.47;5021151;28;20992;-79
2023/09/29 04:21:14;;;;;;;11.57;3.50;;;14.60;99.90;;;15.70;100.00;98274.00;5021405;28;21416;-79
2023/09/29 04:23:47;;;;;;;6.10;3.33;;;14.70;99.90;;;15.70;100.00;98274.00;5019731;28;21534;-79
2023/09/29 04:26:20;;;;;;;7.83;3.73;;;14.70;99.90;;;15.66;100.00;98270.19;5020695;28;22029;-79
2023/09/29 04:28:50;;;;;;;7.20;3.63;;;14.70;99.90;;;15.65;100.00;98260.69;5021115;28;20468;-79
2023/09/29 04:31:20;;;;;;;7.27;3.57;;;14.70;99.90;;;15.63;100.00;98260.88;5021025;28;20453;-79
2023/09/29 04:33:49;;;;;;;11.13;4.30;;;14.70;99.90;;;15.65;100.00;98260.69;5021489;28;20457;-79
2023/09/29 04:36:18;;;;;;;5.50;3.97;;;14.70;99.90;;;15.63;100.00;98257.44;5019236;28;20564;-79
2023/09/29 04:38:47;;;;;;;5.87;3.53;;;14.70;99.90;;;15.59;100.00;98260.50;5020761;28;20976;-79
2023/09/29 04:41:19;;;;;;;9.90;4.30;;;14.70;99.90;;;15.62;100.00;98266.38;5019832;28;20494;-79
2023/09/29 04:43:50;;;;;;;7.23;3.37;;;14.70;99.90;;;15.57;100.00;98265.19;5021545;28;20542;-79
2023/09/29 04:46:19;;;;;;;9.07;3.03;;;14.60;99.90;;;15.54;100.00;98257.69;5020899;28;20461;-79
2023/09/29 04:48:52;;;;;;;11.50;4.00;;;14.70;99.90;;;15.53;100.00;98258.72;5020973;28;20458;-79
2023/09/29 04:51:23;;;;;;;4.67;3.20;;;14.70;99.90;;;15.50;100.00;98259.16;5019144;28;20484;-79
2023/09/29 04:53:53;;;;;;;9.00;3.80;;;14.70;99.90;;;15.53;100.00;98258.72;5018022;28;20973;-79
2023/09/29 04:56:24;;;;;;;16.10;4.10;;;14.60;99.90;;;15.54;100.00;98264.81;5017661;28;20888;-80
2023/09/29 04:58:53;;;;;;;8.00;3.17;;;14.60;99.90;;;15.54;100.00;98257.69;5019344;28;20584;-79
2023/09/29 05:01:26;;;;;;;3.83;2.87;;;14.60;99.90;;;15.55;100.00;98261.13;5018327;28;20490;-79
2023/09/29 05:03:56;;;;;;;9.33;3.13;;;14.50;99.90;;;15.54;100.00;98257.69;5018734;28;20546;-79
2023/09/29 05:06:28;;;;;;;4.90;3.37;;;14.60;99.90;;;15.57;100.00;98261.72;5019286;28;20545;-79
2023/09/29 05:08:59;;;;;;;7.40;3.43;;;14.60;99.90;;;15.54;100.00;98259.53;5018876;28;20549;-79
2023/09/29 05:11:31;;;;;;;7.73;3.77;;;14.60;99.90;;;15.54;100.00;98260.34;5019391;28;20467;-79
2023/09/29 05:14:02;;;;;;;9.50;3.27;;;14.70;99.90;;;15.56;100.00;98253.00;5020024;28;20459;-79
2023/09/29 05:16:34;;;;;;;4.03;2.97;;;14.60;99.90;;;15.55;100.00;98258.47;5020270;28;20568;-79
2023/09/29 05:19:04;;;;;;;10.17;3.70;;;14.70;99.90;;;15.54;100.00;98262.97;5018520;28;20477;-79
2023/09/29 05:21:35;;;;;;;8.87;3.90;;;14.70;99.90;;;15.53;100.00;98264.00;5019902;28;20980;-79
2023/09/29 05:24:04;;;;;;;8.77;3.50;;;14.60;99.90;;;15.55;100.00;98267.22;5019517;28;20483;-79
2023/09/29 05:26:34;;;;;;;7.70;4.20;;;14.60;99.90;;;15.58;100.00;98266.78;5019401;28;20516;-80
2023/09/29 05:29:04;;;;;;;8.40;4.07;;;14.60;99.90;;;15.56;100.00;98258.28;5020346;28;20529;-79
2023/09/29 05:31:34;;;;;;;8.40;3.60;;;14.60;99.90;;;15.59;100.00;98259.69;5017839;28;20493;-79
2023/09/29 05:34:03;;;;;;;7.83;4.00;;;14.70;99.90;;;15.57;100.00;98249.38;5021265;28;20458;-79
2023/09/29 05:36:32;;;;;;;7.70;3.63;;;14.70;99.90;;;15.58;100.00;98240.41;5019623;28;20500;-79
2023/09/29 05:39:03;;;;;;;7.30;3.67;;;14.60;99.90;;;15.60;100.00;98233.13;5019697;28;20492;-79
2023/09/29 05:41:36;;;;;;;8.40;3.40;;;14.60;99.90;;;15.60;100.00;98243.66;5021027;28;20498;-79
2023/09/29 05:44:08;;;;;;;6.87;4.10;;;14.60;99.90;;;15.57;100.00;98248.56;5020667;28;20491;-79
2023/09/29 05:46:37;;;;;;;4.53;3.27;;;14.70;99.90;;;15.55;100.00;98261.94;5015922;28;20458;-79
2023/09/29 05:49:09;;;;;;;4.77;3.47;;;14.80;99.90;;;15.55;100.00;98264.56;5018214;28;20519;-79
2023/09/29 05:51:38;;;;;;;8.53;3.50;;;14.70;99.90;;;15.55;100.00;98269.84;5017104;28;20508;-80
2023/09/29 05:54:07;;;;;;;7.57;4.03;;;14.60;99.90;;;15.59;100.00;98273.66;5019111;28;20470;-79
2023/09/29 05:56:40;;;;;;;5.30;3.40;;;14.60;99.90;;;15.62;100.00;98269.78;5018973;28;20489;-79
2023/09/29 05:59:09;;;;;;;8.90;3.30;;;14.70;99.90;;;15.62;100.00;98280.34;5019002;28;20458;-79
2023/09/29 06:01:38;;;;;;;4.60;3.40;;;14.70;99.90;;;15.59;100.00;98278.94;5018338;28;20470;-80
2023/09/29 06:04:08;;;;;;;6.27;4.13;;;14.70;99.90;;;15.64;100.00;98280.13;5014877;28;20881;-79
2023/09/29 06:06:39;;;;;;;8.93;3.70;;;14.70;99.90;;;15.64;100.00;98280.13;5018837;28;20847;-80
2023/09/29 06:09:09;;;;;;;5.67;3.80;;;14.70;99.90;;;15.64;100.00;98274.88;5019537;28;21014;-79
2023/09/29 06:11:41;;;;;;;7.17;3.97;;;14.80;99.90;;;15.66;100.00;98272.81;5015807;28;20602;-79
2023/09/29 06:14:11;;;;;;;11.73;4.07;;;14.80;99.90;;;15.68;100.00;98276.06;5017410;28;21869;-79
2023/09/29 06:16:41;;;;;;;10.13;4.30;;;14.80;99.90;;;15.70;100.00;98274.00;5016692;28;20522;-80
2023/09/29 06:19:11;;;;;;;12.30;3.70;;;14.80;99.90;;;15.74;100.00;98281.28;5018174;28;20458;-79
2023/09/29 06:21:44;;;;;;;8.80;4.07;;;14.80;99.90;;;15.77;100.00;98274.75;5016975;28;20460;-79
2023/09/29 06:24:14;;;;;;;5.37;3.60;;;14.90;99.90;;;15.79;100.00;98275.38;5013527;28;20509;-79
2023/09/29 06:26:46;;;;;;;11.83;4.10;;;14.80;99.90;;;15.78;100.00;98274.56;5017280;28;20505;-80
2023/09/29 06:29:17;;;;;;;9.17;5.10;;;14.90;99.90;;;15.76;100.00;98276.59;5018900;28;20466;-78
2023/09/29 06:31:46;;;;;;;8.67;3.70;;;15.00;99.90;;;15.77;100.00;98277.41;5013629;28;20468;-79
2023/09/29 06:34:17;;;;;;;8.27;4.30;;;15.00;99.90;;;15.81;100.00;98271.50;5021227;28;20552;-80
2023/09/29 06:36:47;;;;;;;9.87;4.23;;;14.90;99.90;;;15.83;100.00;98264.16;5018926;28;20589;-80
2023/09/29 06:39:17;;;;;;;8.67;3.80;;;14.90;99.90;;;15.87;100.00;98267.19;5019944;28;20523;-80
2023/09/29 06:41:48;;;;;;;6.83;3.40;;;14.90;99.90;;;15.90;100.00;98274.66;5016873;28;20466;-80
2023/09/29 06:44:19;;;;;;;16.63;4.40;;;15.00;99.90;;;15.93;100.00;98258.44;5015820;28;21086;-80
2023/09/29 06:46:48;;;;;;;5.13;4.00;;;15.00;99.90;;;15.96;100.00;98263.28;5017432;28;20906;-80
2023/09/29 06:49:19;;;;;;;5.33;3.27;;;15.00;99.90;;;15.98;100.00;98261.22;5016877;28;20593;-80
2023/09/29 06:51:49;;;;;;;8.03;3.73;;;15.00;99.90;;;15.99;100.00;98271.56;5018259;28;20535;-80
2023/09/29 06:54:18;;;;;;;6.10;3.90;;;15.00;99.90;;;15.97;100.00;98264.88;5017468;28;20545;-80
2023/09/29 06:56:50;;;;;;;10.00;3.47;;;15.00;99.90;;;15.99;100.00;98262.84;5016487;28;20581;-79
2023/09/29 06:59:21;;;;;;;6.30;3.63;;;15.10;99.90;;;16.00;100.00;98248.63;5016333;28;20491;-80
2023/09/29 07:01:51;;;;;;;10.57;3.50;;;15.10;99.90;;;16.03;100.00;98253.47;5018938;28;20467;-80
2023/09/29 07:04:20;;;;;;;10.70;4.27;;;15.10;99.90;;;16.04;100.00;98252.44;5018787;28;20513;-80
2023/09/29 07:06:50;;;;;;;5.00;3.03;;;15.00;99.90;;;16.00;100.00;98252.06;5017557;28;20494;-80
2023/09/29 07:09:19;;;;;;;7.43;4.00;;;15.10;99.90;;;16.01;100.00;98255.50;5019124;28;20458;-80
2023/09/29 07:11:51;;;;;;;10.77;4.30;;;15.20;99.90;;;16.03;100.00;98258.75;5018294;28;20462;-80
2023/09/29 07:14:21;;;;;;;6.47;3.80;;;15.20;99.90;;;16.04;100.00;98265.63;5019310;28;20466;-80
2023/09/29 07:16:54;;;;;;;8.67;3.60;;;15.10;99.90;;;16.06;100.00;98263.59;5018032;28;20490;-80
2023/09/29 07:19:23;;;;;;;10.17;3.80;;;15.10;99.90;;;16.07;100.00;98259.91;5016853;28;20968;-80
2023/09/29 07:21:57;;;;;;;6.90;3.97;;;15.20;99.90;;;16.09;100.00;98269.25;5018190;28;20470;-80
2023/09/29 07:24:27;;;;;;;6.27;3.50;;;15.10;99.90;;;16.10;100.00;98275.31;5016355;28;20469;-80
2023/09/29 07:26:58;;;;;;;6.07;3.60;;;15.10;99.90;;;16.10;100.00;98276.09;5015187;28;20844;-80
2023/09/29 07:29:27;;;;;;;23.93;12.63;;;15.20;99.90;;;16.13;100.00;98284.63;5013830;28;20473;-79
2023/09/29 07:31:58;;;;;;;13.80;7.93;;;15.20;99.90;;;16.14;100.00;98287.03;5015466;28;20487;-80
2023/09/29 07:34:29;;;;;;;9.30;4.77;;;15.20;99.90;;;16.17;100.00;98281.34;5016352;28;20836;-80
2023/09/29 07:36:59;;;;;;;11.93;4.77;;;15.10;99.90;;;16.20;100.00;98288.03;5017966;28;20485;-80
2023/09/29 07:39:29;;;;;;;10.93;4.50;;;15.20;99.90;;;16.23;100.00;98279.66;5017271;28;20474;-79
2023/09/29 07:42:01;;;;;;;9.43;4.80;;;15.30;99.90;;;16.25;100.00;98285.53;5017913;28;20557;-79
2023/09/29 07:44:32;;;;;;;5.90;3.67;;;15.30;99.90;;;16.27;100.00;98284.31;5019529;28;21008;-79
2023/09/29 07:47:02;;;;;;;5.50;3.13;;;15.30;99.90;;;16.31;100.00;98282.84;5019311;28;20519;-79
2023/09/29 07:49:33;;;;;;;7.07;3.67;;;15.40;99.90;;;16.35;100.00;98284.00;5016395;28;20512;-80
2023/09/29 07:52:03;;;;;;;8.10;4.00;;;15.40;99.90;;;16.39;100.00;98279.09;5016892;28;20467;-79
2023/09/29 07:54:34;;;;;;;7.63;4.40;;;15.40;99.90;;;16.39;100.00;98272.00;5014176;28;21072;-79
2023/09/29 07:57:07;;;;;;;8.33;3.93;;;15.50;99.90;;;16.43;100.00;98275.00;5016385;28;20582;-80
2023/09/29 07:59:37;;;;;;;6.93;3.27;;;15.60;99.90;;;16.47;100.00;98277.00;5017534;28;21170;-80
2023/09/29 08:02:08;;;;;;;8.67;3.50;;;15.50;99.90;;;16.50;100.00;98271.28;5014307;28;20553;-78
2023/09/29 08:04:39;;;;;;;7.83;3.57;;;15.60;99.90;;;16.53;100.00;98270.84;5015968;28;20524;-79
2023/09/29 08:07:10;;;;;;;5.83;3.60;;;15.60;99.90;;;16.55;100.00;98271.47;5015406;28;20915;-80
2023/09/29 08:09:39;;;;;;;6.53;3.87;;;15.70;99.90;;;16.60;100.00;98287.44;5016306;28;21015;-79
2023/09/29 08:12:10;;;;;;;10.93;3.90;;;15.70;99.90;;;16.64;100.00;98276.44;5014096;28;20471;-80
2023/09/29 08:14:40;;;;;;;6.33;4.33;;;15.80;99.90;;;16.67;100.00;98262.78;5016536;28;20570;-79
2023/09/29 08:17:11;;;;;;;8.90;4.33;;;15.80;99.90;;;16.71;100.00;98266.63;5014044;28;20597;-79
2023/09/29 08:19:42;;;;;;;107.10;65.20;;;15.90;99.90;;;16.77;100.00;98266.53;5015957;28;20910;-79
2023/09/29 08:22:11;;;;;;;29.07;15.13;;;16.00;99.90;;;16.81;100.00;98264.25;5014731;28;20721;-80
2023/09/29 08:24:42;;;;;;;8.00;4.60;;;16.00;99.90;;;16.86;100.00;98272.34;5014999;28;20478;-78
2023/09/29 08:27:14;;;;;;;11.10;4.20;;;16.00;99.90;;;16.91;100.00;98283.03;5016120;28;20461;-80
2023/09/29 08:29:45;;;;;;;6.03;4.57;;;16.10;99.90;;;17.01;100.00;98281.47;5014984;28;20490;-78
2023/09/29 08:32:16;;;;;;;4.70;3.43;;;16.30;99.90;;;17.08;100.00;98273.47;5017149;28;20469;-80
2023/09/29 08:34:46;;;;;;;8.27;4.33;;;16.40;99.90;;;17.19;100.00;98259.50;5019002;28;20467;-80
2023/09/29 08:37:16;;;;;;;10.57;4.93;;;16.50;99.90;;;17.25;100.00;98258.59;5016757;28;20497;-80
2023/09/29 08:39:45;;;;;;;6.67;4.87;;;16.60;99.90;;;17.38;100.00;98263.75;5016289;28;20469;-80
2023/09/29 08:42:31;;;;;;;7.27;3.90;;;16.70;99.90;;;17.47;100.00;98275.59;5017668;28;20458;-80
2023/09/29 08:45:03;;;;;;;9.23;4.63;;;16.90;99.90;;;17.62;100.00;98277.06;5021176;28;20979;-80
2023/09/29 08:47:37;;;;;;;8.93;3.87;;;17.00;99.90;;;17.73;100.00;98276.28;5019922;28;20957;-80
2023/09/29 08:50:13;;;;;;;8.17;4.50;;;17.10;99.90;;;17.83;100.00;98281.81;5022302;28;20576;-80
2023/09/29 08:52:45;;;;;;;12.30;4.40;;;17.10;99.90;;;17.99;100.00;98275.84;5017484;28;20475;-80
2023/09/29 08:55:16;;;;;;;6.07;4.83;;;17.30;99.90;;;18.11;100.00;98284.63;5021216;28;20556;-80
2023/09/29 08:57:48;;;;;;;10.30;4.10;;;17.50;99.90;;;18.19;100.00;98280.84;5019384;28;20498;-80
2023/09/29 09:00:23;;;;;;;68.37;37.80;;;17.50;99.90;;;18.35;100.00;98286.25;5020246;28;20465;-80
2023/09/29 09:02:54;;;;;;;9.17;5.93;;;17.70;99.90;;;18.39;100.00;98271.50;5019818;28;20550;-80
2023/09/29 09:05:28;;;;;;;10.07;3.93;;;17.80;99.90;;;18.48;100.00;98278.06;5017188;28;20524;-80
2023/09/29 09:08:01;;;;;;;6.60;3.33;;;17.90;99.90;;;18.56;100.00;98279.59;5020067;28;20581;-80
2023/09/29 09:10:36;;;;;;;5.60;4.07;;;17.90;99.90;;;18.66;100.00;98281.63;5020207;28;20488;-80
2023/09/29 09:13:08;;;;;;;7.03;3.93;;;18.00;99.90;;;18.72;100.00;98288.66;5018174;28;20564;-80
2023/09/29 09:15:38;;;;;;;7.63;3.87;;;18.10;99.90;;;18.74;100.00;98290.06;5018923;28;20988;-80
2023/09/29 09:18:09;;;;;;;8.00;3.80;;;18.20;99.90;;;18.79;100.00;98291.97;5020921;28;20498;-79
2023/09/29 09:20:39;;;;;;;5.97;3.90;;;18.20;99.90;;;18.89;100.00;98302.78;5014861;28;20455;-80
2023/09/29 09:23:09;;;;;;;12.67;3.30;;;18.30;99.90;;;18.95;100.00;98291.28;5018135;28;20543;-80
2023/09/29 09:25:42;;;;;;;8.90;3.77;;;18.40;99.90;;;19.06;100.00;98282.47;5017799;28;20462;-80
2023/09/29 09:28:19;;;;;;;9.83;3.50;;;18.50;99.90;;;19.10;100.00;98275.66;5020819;28;20473;-82
2023/09/29 09:30:51;;;;;;;8.07;3.57;;;18.60;99.90;;;19.15;100.00;98277.59;5017200;28;20478;-80
2023/09/29 09:33:22;;;;;;;5.93;3.00;;;18.60;99.90;;;19.20;100.00;98294.41;5017076;28;20804;-80
2023/09/29 09:35:52;;;;;;;23.93;13.83;;;18.70;99.90;;;19.24;100.00;98284.94;5017596;28;20451;-81
2023/09/29 09:38:32;;;;;;;13.53;5.53;;;18.70;99.90;;;19.29;100.00;98287.69;5015570;28;20585;-80
2023/09/29 09:41:01;;;;;;;4.17;3.00;;;18.80;99.90;;;19.38;100.00;98299.53;5016316;28;20464;-80
2023/09/29 09:43:38;;;;;;;11.90;3.97;;;18.80;99.90;;;19.43;100.00;98304.97;5015454;28;20495;-80
2023/09/29 09:46:12;;;;;;;8.17;3.17;;;18.90;99.90;;;19.51;100.00;98304.56;5017679;28;20451;-80
2023/09/29 09:48:50;;;;;;;5.73;2.67;;;19.00;99.90;;;19.66;100.00;98316.50;5017294;28;20482;-80
2023/09/29 09:51:35;;;;;;;6.73;3.80;;;19.10;99.90;;;19.73;100.00;98314.50;5020497;28;20457;-80
2023/09/29 09:54:08;;;;;;;10.40;3.73;;;19.20;99.90;;;19.76;100.00;98319.34;5018625;28;20465;-80
2023/09/29 09:56:47;;;;;;;6.77;4.27;;;19.20;99.90;;;19.77;100.00;98321.78;5018861;28;20509;-80
2023/09/29 09:59:20;;;;;;;9.93;5.33;;;19.20;99.90;;;19.80;100.00;98320.47;5018023;28;20458;-80
2023/09/29 10:01:51;;;;;;;8.83;4.30;;;19.20;99.90;;;19.84;100.00;98316.31;5019422;28;20466;-80
2023/09/29 10:04:22;;;;;;;11.17;3.60;;;19.20;99.90;;;19.86;100.00;98319.50;5018232;28;21214;-80
2023/09/29 10:06:51;;;;;;;7.30;3.30;;;19.30;99.90;;;19.90;100.00;98321.47;5016705;28;20512;-80
2023/09/29 10:09:21;;;;;;;11.30;4.00;;;19.30;99.90;;;19.94;100.00;98321.78;5016687;28;20474;-81
2023/09/29 10:11:59;;;;;;;7.40;3.33;;;19.40;99.90;;;20.01;100.00;98325.09;5014713;28;20478;-80
2023/09/29 10:14:42;;;;;;;41.67;24.30;;;19.40;99.90;;;20.07;100.00;98322.28;5017840;28;20469;-80
2023/09/29 10:17:13;;;;;;;5.50;3.10;;;19.50;99.90;;;20.15;100.00;98317.63;5015736;28;20486;-80
2023/09/29 10:19:44;;;;;;;11.47;3.70;;;19.50;99.90;;;20.24;100.00;98334.75;5017040;28;20470;-80
2023/09/29 10:22:24;;;;;;;8.30;4.00;;;19.70;99.90;;;20.31;100.00;98328.25;5018517;28;21095;-80
2023/09/29 10:24:59;;;;;;;8.30;3.60;;;19.70;99.90;;;20.38;100.00;98336.88;5018450;28;20486;-80
2023/09/29 10:27:34;;;;;;;6.30;2.50;;;19.80;99.90;;;20.44;100.00;98343.88;5019980;28;20465;-80